Addicks, Texas
Current Conditions -  °F | °C
As of 5:53 PM on Monday 24 Nov 2014 (Local Time) from KSGR Reporting Station
Clear Clear  
Wind Chill: 58°   Ceiling: Unl
Heat Index: 58°   Visibility: 10mi
Dew Point: 34°   Wind: 7mph
Humidity: 41%   Direction: 360°N
Pressure: 30.04"   Gusts: NA
Location:  29.7757°N, 95.6037°W
Report Text: KSGR 242353Z 36006KT 10SM CLR 14/01 A3004 RMK AO2 SLP175 T01440011 10189 20144 53009
Loading
Personal Weather Stations






























Interactive Weather Map New forecast layout! Learn more

10-Day Weather Forecast

Advertisements
Track Severe Weather on mobile